sensor_id;sensor_type;location;lat;lon;timestamp;P1;durP1;ratioP1;P2;durP2;ratioP2
42590;SDS011;28218;53.342;-6.216;2023-04-06T00:00:04;8.73;;;2.13;;
42590;SDS011;28218;53.342;-6.216;2023-04-06T00:02:35;6.00;;;1.65;;
42590;SDS011;28218;53.342;-6.216;2023-04-06T00:05:03;9.00;;;2.10;;
42590;SDS011;28218;53.342;-6.216;2023-04-06T00:07:33;8.05;;;2.28;;
42590;SDS011;28218;53.342;-6.216;2023-04-06T00:10:05;6.68;;;2.08;;
42590;SDS011;28218;53.342;-6.216;2023-04-06T00:12:34;6.35;;;1.80;;
42590;SDS011;28218;53.342;-6.216;2023-04-06T00:15:02;10.23;;;2.25;;
42590;SDS011;28218;53.342;-6.216;2023-04-06T00:17:32;7.50;;;2.08;;
42590;SDS011;28218;53.342;-6.216;2023-04-06T00:20:00;10.13;;;1.90;;
42590;SDS011;28218;53.342;-6.216;2023-04-06T00:22:28;6.05;;;2.72;;
42590;SDS011;28218;53.342;-6.216;2023-04-06T00:24:57;9.90;;;1.90;;
42590;SDS011;28218;53.342;-6.216;2023-04-06T00:27:27;9.00;;;1.83;;
42590;SDS011;28218;53.342;-6.216;2023-04-06T00:29:55;7.47;;;2.10;;
42590;SDS011;28218;53.342;-6.216;2023-04-06T00:32:23;9.95;;;2.65;;
42590;SDS011;28218;53.342;-6.216;2023-04-06T00:34:52;9.55;;;2.80;;
42590;SDS011;28218;53.342;-6.216;2023-04-06T00:37:20;10.43;;;2.13;;
42590;SDS011;28218;53.342;-6.216;2023-04-06T00:39:48;8.48;;;2.08;;
42590;SDS011;28218;53.342;-6.216;2023-04-06T00:42:17;8.18;;;2.10;;
42590;SDS011;28218;53.342;-6.216;2023-04-06T00:44:53;20.45;;;2.45;;
42590;SDS011;28218;53.342;-6.216;2023-04-06T00:47:23;10.05;;;2.50;;
42590;SDS011;28218;53.342;-6.216;2023-04-06T00:49:53;8.70;;;2.15;;
42590;SDS011;28218;53.342;-6.216;2023-04-06T00:52:21;14.90;;;2.88;;
42590;SDS011;28218;53.342;-6.216;2023-04-06T00:54:50;10.27;;;2.05;;
42590;SDS011;28218;53.342;-6.216;2023-04-06T00:57:18;10.85;;;2.13;;
42590;SDS011;28218;53.342;-6.216;2023-04-06T00:59:46;5.82;;;1.80;;
42590;SDS011;28218;53.342;-6.216;2023-04-06T01:02:16;10.52;;;2.33;;
42590;SDS011;28218;53.342;-6.216;2023-04-06T01:04:45;6.00;;;2.33;;
42590;SDS011;28218;53.342;-6.216;2023-04-06T01:07:13;10.80;;;2.83;;
42590;SDS011;28218;53.342;-6.216;2023-04-06T01:09:41;6.82;;;1.90;;
42590;SDS011;28218;53.342;-6.216;2023-04-06T01:12:10;8.23;;;1.85;;
42590;SDS011;28218;53.342;-6.216;2023-04-06T01:14:38;7.93;;;2.70;;
42590;SDS011;28218;53.342;-6.216;2023-04-06T01:17:06;7.13;;;2.33;;
42590;SDS011;28218;53.342;-6.216;2023-04-06T01:19:36;12.38;;;2.50;;
42590;SDS011;28218;53.342;-6.216;2023-04-06T01:22:04;8.40;;;2.10;;
42590;SDS011;28218;53.342;-6.216;2023-04-06T01:24:34;11.55;;;2.03;;
42590;SDS011;28218;53.342;-6.216;2023-04-06T01:27:02;8.40;;;2.42;;
42590;SDS011;28218;53.342;-6.216;2023-04-06T01:29:31;8.90;;;2.65;;
42590;SDS011;28218;53.342;-6.216;2023-04-06T01:31:59;10.70;;;2.60;;
42590;SDS011;28218;53.342;-6.216;2023-04-06T01:34:27;12.70;;;2.78;;
42590;SDS011;28218;53.342;-6.216;2023-04-06T01:36:55;9.52;;;2.50;;
42590;SDS011;28218;53.342;-6.216;2023-04-06T01:39:24;14.80;;;2.78;;
42590;SDS011;28218;53.342;-6.216;2023-04-06T01:41:54;7.72;;;2.40;;
42590;SDS011;28218;53.342;-6.216;2023-04-06T01:44:22;10.00;;;2.47;;
42590;SDS011;28218;53.342;-6.216;2023-04-06T01:46:50;8.48;;;2.15;;
42590;SDS011;28218;53.342;-6.216;2023-04-06T01:49:18;9.05;;;2.63;;
42590;SDS011;28218;53.342;-6.216;2023-04-06T01:51:47;10.80;;;2.40;;
42590;SDS011;28218;53.342;-6.216;2023-04-06T01:54:15;22.27;;;2.95;;
42590;SDS011;28218;53.342;-6.216;2023-04-06T01:56:43;6.57;;;2.00;;
42590;SDS011;28218;53.342;-6.216;2023-04-06T01:59:13;8.32;;;2.17;;
42590;SDS011;28218;53.342;-6.216;2023-04-06T02:01:41;6.53;;;2.17;;
42590;SDS011;28218;53.342;-6.216;2023-04-06T02:04:10;10.45;;;2.88;;
42590;SDS011;28218;53.342;-6.216;2023-04-06T02:06:38;5.63;;;2.10;;
42590;SDS011;28218;53.342;-6.216;2023-04-06T02:09:06;8.70;;;2.35;;
42590;SDS011;28218;53.342;-6.216;2023-04-06T02:11:35;9.57;;;2.55;;
42590;SDS011;28218;53.342;-6.216;2023-04-06T02:14:03;8.88;;;2.30;;
42590;SDS011;28218;53.342;-6.216;2023-04-06T02:16:32;10.07;;;3.08;;
42590;SDS011;28218;53.342;-6.216;2023-04-06T02:19:01;7.22;;;2.20;;
42590;SDS011;28218;53.342;-6.216;2023-04-06T02:21:29;14.38;;;2.75;;
42590;SDS011;28218;53.342;-6.216;2023-04-06T02:23:57;17.63;;;3.33;;
42590;SDS011;28218;53.342;-6.216;2023-04-06T02:26:26;10.93;;;2.55;;
42590;SDS011;28218;53.342;-6.216;2023-04-06T02:28:54;8.85;;;2.78;;
42590;SDS011;28218;53.342;-6.216;2023-04-06T02:31:22;18.63;;;3.45;;
42590;SDS011;28218;53.342;-6.216;2023-04-06T02:33:52;11.52;;;3.20;;
42590;SDS011;28218;53.342;-6.216;2023-04-06T02:36:20;8.63;;;2.72;;
42590;SDS011;28218;53.342;-6.216;2023-04-06T02:38:49;12.43;;;3.00;;
42590;SDS011;28218;53.342;-6.216;2023-04-06T02:41:18;10.07;;;2.65;;
42590;SDS011;28218;53.342;-6.216;2023-04-06T02:43:46;18.90;;;4.00;;
42590;SDS011;28218;53.342;-6.216;2023-04-06T02:46:14;9.15;;;2.25;;
42590;SDS011;28218;53.342;-6.216;2023-04-06T02:48:43;13.73;;;2.60;;
42590;SDS011;28218;53.342;-6.216;2023-04-06T02:51:12;7.50;;;2.58;;
42590;SDS011;28218;53.342;-6.216;2023-04-06T02:53:41;9.65;;;2.05;;
42590;SDS011;28218;53.342;-6.216;2023-04-06T02:56:09;10.23;;;2.72;;
42590;SDS011;28218;53.342;-6.216;2023-04-06T02:58:37;8.88;;;2.50;;
42590;SDS011;28218;53.342;-6.216;2023-04-06T03:01:05;14.48;;;3.13;;
42590;SDS011;28218;53.342;-6.216;2023-04-06T03:03:34;10.95;;;2.70;;
42590;SDS011;28218;53.342;-6.216;2023-04-06T03:06:02;9.38;;;2.38;;
42590;SDS011;28218;53.342;-6.216;2023-04-06T03:08:32;14.63;;;2.67;;
42590;SDS011;28218;53.342;-6.216;2023-04-06T03:11:00;11.07;;;2.97;;
42590;SDS011;28218;53.342;-6.216;2023-04-06T03:13:29;14.18;;;2.70;;
42590;SDS011;28218;53.342;-6.216;2023-04-06T03:15:57;6.72;;;2.00;;
42590;SDS011;28218;53.342;-6.216;2023-04-06T03:18:25;8.15;;;3.40;;
42590;SDS011;28218;53.342;-6.216;2023-04-06T03:20:53;10.30;;;2.95;;
42590;SDS011;28218;53.342;-6.216;2023-04-06T03:23:21;9.65;;;3.03;;
42590;SDS011;28218;53.342;-6.216;2023-04-06T03:25:51;12.13;;;3.35;;
42590;SDS011;28218;53.342;-6.216;2023-04-06T03:28:19;11.30;;;3.25;;
42590;SDS011;28218;53.342;-6.216;2023-04-06T03:30:48;13.77;;;2.90;;
42590;SDS011;28218;53.342;-6.216;2023-04-06T03:33:17;10.70;;;2.80;;
42590;SDS011;28218;53.342;-6.216;2023-04-06T03:35:45;13.02;;;3.45;;
42590;SDS011;28218;53.342;-6.216;2023-04-06T03:38:13;15.38;;;2.75;;
42590;SDS011;28218;53.342;-6.216;2023-04-06T03:40:42;10.05;;;3.05;;
42590;SDS011;28218;53.342;-6.216;2023-04-06T03:43:11;9.18;;;3.40;;
42590;SDS011;28218;53.342;-6.216;2023-04-06T03:45:39;18.67;;;2.95;;
42590;SDS011;28218;53.342;-6.216;2023-04-06T03:48:08;10.43;;;2.80;;
42590;SDS011;28218;53.342;-6.216;2023-04-06T03:50:36;13.43;;;3.08;;
42590;SDS011;28218;53.342;-6.216;2023-04-06T03:53:04;8.60;;;2.38;;
42590;SDS011;28218;53.342;-6.216;2023-04-06T03:55:32;16.52;;;3.35;;
42590;SDS011;28218;53.342;-6.216;2023-04-06T03:58:01;12.55;;;3.00;;
42590;SDS011;28218;53.342;-6.216;2023-04-06T04:00:30;10.65;;;3.50;;
42590;SDS011;28218;53.342;-6.216;2023-04-06T04:02:59;15.75;;;3.50;;
42590;SDS011;28218;53.342;-6.216;2023-04-06T04:05:28;9.95;;;2.75;;
42590;SDS011;28218;53.342;-6.216;2023-04-06T04:07:57;12.75;;;2.88;;
42590;SDS011;28218;53.342;-6.216;2023-04-06T04:10:25;17.08;;;3.30;;
42590;SDS011;28218;53.342;-6.216;2023-04-06T04:12:53;7.80;;;2.47;;
42590;SDS011;28218;53.342;-6.216;2023-04-06T04:15:22;11.68;;;2.75;;
42590;SDS011;28218;53.342;-6.216;2023-04-06T04:17:51;15.25;;;2.42;;
42590;SDS011;28218;53.342;-6.216;2023-04-06T04:20:20;11.70;;;2.53;;
42590;SDS011;28218;53.342;-6.216;2023-04-06T04:22:48;10.95;;;2.40;;
42590;SDS011;28218;53.342;-6.216;2023-04-06T04:25:16;10.75;;;2.70;;
42590;SDS011;28218;53.342;-6.216;2023-04-06T04:27:44;16.27;;;3.30;;
42590;SDS011;28218;53.342;-6.216;2023-04-06T04:30:13;9.00;;;2.58;;
42590;SDS011;28218;53.342;-6.216;2023-04-06T04:32:41;14.70;;;2.67;;
42590;SDS011;28218;53.342;-6.216;2023-04-06T04:35:11;7.70;;;2.38;;
42590;SDS011;28218;53.342;-6.216;2023-04-06T04:37:40;7.32;;;2.10;;
42590;SDS011;28218;53.342;-6.216;2023-04-06T04:40:09;6.97;;;2.05;;
42590;SDS011;28218;53.342;-6.216;2023-04-06T04:42:38;9.90;;;2.03;;
42590;SDS011;28218;53.342;-6.216;2023-04-06T04:45:06;9.27;;;2.30;;
42590;SDS011;28218;53.342;-6.216;2023-04-06T04:47:35;7.97;;;2.08;;
42590;SDS011;28218;53.342;-6.216;2023-04-06T04:50:03;5.75;;;2.00;;
42590;SDS011;28218;53.342;-6.216;2023-04-06T04:52:33;11.00;;;1.70;;
42590;SDS011;28218;53.342;-6.216;2023-04-06T04:55:02;10.23;;;2.08;;
42590;SDS011;28218;53.342;-6.216;2023-04-06T04:57:30;7.90;;;2.15;;
42590;SDS011;28218;53.342;-6.216;2023-04-06T04:59:58;8.10;;;1.77;;
42590;SDS011;28218;53.342;-6.216;2023-04-06T05:02:28;8.95;;;1.70;;
42590;SDS011;28218;53.342;-6.216;2023-04-06T05:04:56;4.80;;;1.30;;
42590;SDS011;28218;53.342;-6.216;2023-04-06T05:07:24;11.57;;;1.85;;
42590;SDS011;28218;53.342;-6.216;2023-04-06T05:09:54;7.10;;;1.52;;
42590;SDS011;28218;53.342;-6.216;2023-04-06T05:12:22;3.92;;;1.23;;
42590;SDS011;28218;53.342;-6.216;2023-04-06T05:14:51;7.15;;;2.03;;
42590;SDS011;28218;53.342;-6.216;2023-04-06T05:17:19;7.45;;;1.40;;
42590;SDS011;28218;53.342;-6.216;2023-04-06T05:19:48;10.18;;;1.70;;
42590;SDS011;28218;53.342;-6.216;2023-04-06T05:22:16;13.15;;;3.25;;
42590;SDS011;28218;53.342;-6.216;2023-04-06T05:24:44;15.35;;;2.05;;
42590;SDS011;28218;53.342;-6.216;2023-04-06T05:27:14;14.52;;;2.35;;
42590;SDS011;28218;53.342;-6.216;2023-04-06T05:29:42;8.63;;;1.77;;
42590;SDS011;28218;53.342;-6.216;2023-04-06T05:32:10;11.15;;;2.03;;
42590;SDS011;28218;53.342;-6.216;2023-04-06T05:34:38;19.38;;;2.53;;
42590;SDS011;28218;53.342;-6.216;2023-04-06T05:37:07;19.38;;;2.53;;
42590;SDS011;28218;53.342;-6.216;2023-04-06T05:39:35;11.73;;;2.50;;
42590;SDS011;28218;53.342;-6.216;2023-04-06T05:42:04;10.88;;;2.28;;
42590;SDS011;28218;53.342;-6.216;2023-04-06T05:44:34;10.82;;;2.85;;
42590;SDS011;28218;53.342;-6.216;2023-04-06T05:49:32;7.55;;;3.22;;
42590;SDS011;28218;53.342;-6.216;2023-04-06T05:52:01;14.00;;;3.35;;
42590;SDS011;28218;53.342;-6.216;2023-04-06T05:54:30;17.42;;;3.22;;
42590;SDS011;28218;53.342;-6.216;2023-04-06T05:56:58;10.20;;;2.13;;
42590;SDS011;28218;53.342;-6.216;2023-04-06T05:59:27;9.75;;;2.88;;
42590;SDS011;28218;53.342;-6.216;2023-04-06T06:01:56;12.18;;;3.13;;
42590;SDS011;28218;53.342;-6.216;2023-04-06T06:04:24;15.68;;;3.15;;
42590;SDS011;28218;53.342;-6.216;2023-04-06T06:06:52;15.57;;;3.20;;
42590;SDS011;28218;53.342;-6.216;2023-04-06T06:09:21;14.55;;;2.92;;
42590;SDS011;28218;53.342;-6.216;2023-04-06T06:11:49;15.63;;;2.47;;
42590;SDS011;28218;53.342;-6.216;2023-04-06T06:14:17;21.75;;;3.30;;
42590;SDS011;28218;53.342;-6.216;2023-04-06T06:16:46;13.20;;;3.17;;
42590;SDS011;28218;53.342;-6.216;2023-04-06T06:19:15;10.75;;;2.42;;
42590;SDS011;28218;53.342;-6.216;2023-04-06T06:21:44;13.00;;;2.95;;
42590;SDS011;28218;53.342;-6.216;2023-04-06T06:24:12;12.20;;;2.92;;
42590;SDS011;28218;53.342;-6.216;2023-04-06T06:26:40;12.98;;;3.03;;
42590;SDS011;28218;53.342;-6.216;2023-04-06T06:29:09;14.55;;;2.90;;
42590;SDS011;28218;53.342;-6.216;2023-04-06T06:31:37;9.15;;;2.53;;
42590;SDS011;28218;53.342;-6.216;2023-04-06T06:34:05;11.77;;;3.20;;
42590;SDS011;28218;53.342;-6.216;2023-04-06T06:36:35;11.45;;;4.25;;
42590;SDS011;28218;53.342;-6.216;2023-04-06T06:39:03;10.40;;;2.53;;
42590;SDS011;28218;53.342;-6.216;2023-04-06T06:41:32;11.50;;;2.72;;
42590;SDS011;28218;53.342;-6.216;2023-04-06T06:44:00;13.73;;;3.38;;
42590;SDS011;28218;53.342;-6.216;2023-04-06T06:46:28;10.02;;;2.22;;
42590;SDS011;28218;53.342;-6.216;2023-04-06T06:48:58;9.85;;;2.78;;
42590;SDS011;28218;53.342;-6.216;2023-04-06T06:51:26;10.63;;;2.60;;
42590;SDS011;28218;53.342;-6.216;2023-04-06T06:53:56;5.00;;;2.03;;
42590;SDS011;28218;53.342;-6.216;2023-04-06T06:56:24;5.20;;;1.83;;
42590;SDS011;28218;53.342;-6.216;2023-04-06T06:58:53;8.50;;;1.63;;
42590;SDS011;28218;53.342;-6.216;2023-04-06T07:01:21;7.85;;;1.83;;
42590;SDS011;28218;53.342;-6.216;2023-04-06T07:03:49;6.88;;;1.67;;
42590;SDS011;28218;53.342;-6.216;2023-04-06T07:06:18;7.68;;;2.53;;
42590;SDS011;28218;53.342;-6.216;2023-04-06T07:08:46;6.00;;;2.22;;
42590;SDS011;28218;53.342;-6.216;2023-04-06T07:11:15;8.65;;;3.25;;
42590;SDS011;28218;53.342;-6.216;2023-04-06T07:13:44;11.50;;;3.33;;
42590;SDS011;28218;53.342;-6.216;2023-04-06T07:16:12;12.07;;;2.63;;
42590;SDS011;28218;53.342;-6.216;2023-04-06T07:18:40;8.50;;;2.92;;
42590;SDS011;28218;53.342;-6.216;2023-04-06T07:21:08;9.75;;;2.90;;
42590;SDS011;28218;53.342;-6.216;2023-04-06T07:23:36;7.03;;;2.40;;
42590;SDS011;28218;53.342;-6.216;2023-04-06T07:26:05;8.48;;;2.22;;
42590;SDS011;28218;53.342;-6.216;2023-04-06T07:28:34;5.18;;;1.80;;
42590;SDS011;28218;53.342;-6.216;2023-04-06T07:31:03;7.07;;;1.90;;
42590;SDS011;28218;53.342;-6.216;2023-04-06T07:33:31;4.20;;;2.20;;
42590;SDS011;28218;53.342;-6.216;2023-04-06T07:35:59;7.93;;;1.92;;
42590;SDS011;28218;53.342;-6.216;2023-04-06T07:38:27;7.60;;;1.90;;
42590;SDS011;28218;53.342;-6.216;2023-04-06T07:40:55;3.58;;;1.23;;
42590;SDS011;28218;53.342;-6.216;2023-04-06T07:43:24;4.25;;;1.23;;
42590;SDS011;28218;53.342;-6.216;2023-04-06T07:45:53;8.00;;;1.58;;
42590;SDS011;28218;53.342;-6.216;2023-04-06T07:48:23;3.92;;;1.70;;
42590;SDS011;28218;53.342;-6.216;2023-04-06T07:50:51;5.50;;;1.73;;
42590;SDS011;28218;53.342;-6.216;2023-04-06T07:53:20;5.00;;;1.60;;
42590;SDS011;28218;53.342;-6.216;2023-04-06T07:55:48;4.38;;;1.42;;
42590;SDS011;28218;53.342;-6.216;2023-04-06T07:58:16;8.40;;;2.15;;
42590;SDS011;28218;53.342;-6.216;2023-04-06T08:00:44;8.50;;;2.30;;
42590;SDS011;28218;53.342;-6.216;2023-04-06T08:03:14;2.72;;;1.50;;
42590;SDS011;28218;53.342;-6.216;2023-04-06T08:05:43;6.45;;;1.80;;
42590;SDS011;28218;53.342;-6.216;2023-04-06T08:08:11;8.10;;;2.17;;
42590;SDS011;28218;53.342;-6.216;2023-04-06T08:10:39;8.60;;;1.73;;
42590;SDS011;28218;53.342;-6.216;2023-04-06T08:13:08;7.30;;;1.80;;
42590;SDS011;28218;53.342;-6.216;2023-04-06T08:15:36;5.47;;;1.73;;
42590;SDS011;28218;53.342;-6.216;2023-04-06T08:18:04;5.88;;;1.70;;
42590;SDS011;28218;53.342;-6.216;2023-04-06T08:20:34;8.05;;;1.73;;
42590;SDS011;28218;53.342;-6.216;2023-04-06T08:23:03;5.97;;;1.95;;
42590;SDS011;28218;53.342;-6.216;2023-04-06T08:25:31;6.15;;;2.03;;
42590;SDS011;28218;53.342;-6.216;2023-04-06T08:27:59;11.95;;;4.88;;
42590;SDS011;28218;53.342;-6.216;2023-04-06T08:30:28;5.72;;;2.25;;
42590;SDS011;28218;53.342;-6.216;2023-04-06T08:32:57;5.25;;;1.58;;
42590;SDS011;28218;53.342;-6.216;2023-04-06T08:35:25;8.80;;;2.03;;
42590;SDS011;28218;53.342;-6.216;2023-04-06T08:37:55;3.28;;;1.65;;
42590;SDS011;28218;53.342;-6.216;2023-04-06T08:40:24;8.55;;;1.95;;
42590;SDS011;28218;53.342;-6.216;2023-04-06T08:42:54;2.30;;;1.33;;
42590;SDS011;28218;53.342;-6.216;2023-04-06T08:45:23;3.63;;;1.30;;
42590;SDS011;28218;53.342;-6.216;2023-04-06T08:47:51;5.22;;;2.10;;
42590;SDS011;28218;53.342;-6.216;2023-04-06T08:50:20;5.63;;;1.65;;
42590;SDS011;28218;53.342;-6.216;2023-04-06T08:52:49;5.97;;;2.20;;
42590;SDS011;28218;53.342;-6.216;2023-04-06T08:55:18;7.78;;;2.22;;
42590;SDS011;28218;53.342;-6.216;2023-04-06T08:57:46;7.20;;;2.05;;
42590;SDS011;28218;53.342;-6.216;2023-04-06T09:00:15;8.90;;;2.22;;
42590;SDS011;28218;53.342;-6.216;2023-04-06T09:02:46;7.47;;;2.23;;
42590;SDS011;28218;53.342;-6.216;2023-04-06T09:05:16;4.72;;;1.83;;
42590;SDS011;28218;53.342;-6.216;2023-04-06T09:07:45;7.45;;;1.80;;
42590;SDS011;28218;53.342;-6.216;2023-04-06T09:10:13;6.95;;;2.30;;
42590;SDS011;28218;53.342;-6.216;2023-04-06T09:12:45;8.90;;;1.92;;
42590;SDS011;28218;53.342;-6.216;2023-04-06T09:15:19;12.25;;;1.92;;
42590;SDS011;28218;53.342;-6.216;2023-04-06T09:17:50;12.27;;;1.92;;
42590;SDS011;28218;53.342;-6.216;2023-04-06T09:20:22;4.07;;;1.40;;
42590;SDS011;28218;53.342;-6.216;2023-04-06T09:22:52;6.22;;;1.48;;
42590;SDS011;28218;53.342;-6.216;2023-04-06T09:25:21;7.93;;;1.60;;
42590;SDS011;28218;53.342;-6.216;2023-04-06T09:27:59;11.75;;;1.75;;
42590;SDS011;28218;53.342;-6.216;2023-04-06T09:30:28;7.90;;;1.90;;
42590;SDS011;28218;53.342;-6.216;2023-04-06T09:32:57;8.25;;;1.83;;
42590;SDS011;28218;53.342;-6.216;2023-04-06T09:35:26;8.70;;;1.88;;
42590;SDS011;28218;53.342;-6.216;2023-04-06T09:37:56;4.32;;;1.45;;
42590;SDS011;28218;53.342;-6.216;2023-04-06T09:40:25;14.20;;;2.25;;
42590;SDS011;28218;53.342;-6.216;2023-04-06T09:42:55;10.03;;;1.53;;
42590;SDS011;28218;53.342;-6.216;2023-04-06T09:45:27;7.32;;;1.42;;
42590;SDS011;28218;53.342;-6.216;2023-04-06T09:47:57;6.35;;;1.35;;
42590;SDS011;28218;53.342;-6.216;2023-04-06T09:50:27;6.18;;;2.08;;
42590;SDS011;28218;53.342;-6.216;2023-04-06T09:52:56;10.85;;;2.15;;
42590;SDS011;28218;53.342;-6.216;2023-04-06T09:55:27;8.00;;;2.03;;
42590;SDS011;28218;53.342;-6.216;2023-04-06T09:58:03;4.20;;;1.95;;
42590;SDS011;28218;53.342;-6.216;2023-04-06T10:03:14;9.00;;;1.00;;
42590;SDS011;28218;53.342;-6.216;2023-04-06T10:05:50;7.38;;;1.40;;
42590;SDS011;28218;53.342;-6.216;2023-04-06T10:08:21;9.65;;;1.27;;
42590;SDS011;28218;53.342;-6.216;2023-04-06T10:10:58;6.75;;;1.08;;
42590;SDS011;28218;53.342;-6.216;2023-04-06T10:13:27;8.30;;;1.42;;
42590;SDS011;28218;53.342;-6.216;2023-04-06T10:15:57;7.32;;;1.60;;
42590;SDS011;28218;53.342;-6.216;2023-04-06T10:18:28;9.77;;;1.20;;
42590;SDS011;28218;53.342;-6.216;2023-04-06T10:20:57;8.55;;;1.65;;
42590;SDS011;28218;53.342;-6.216;2023-04-06T10:23:32;8.35;;;1.60;;
42590;SDS011;28218;53.342;-6.216;2023-04-06T10:26:03;6.15;;;1.58;;
42590;SDS011;28218;53.342;-6.216;2023-04-06T10:28:32;11.75;;;1.60;;
42590;SDS011;28218;53.342;-6.216;2023-04-06T10:31:05;8.83;;;1.37;;
42590;SDS011;28218;53.342;-6.216;2023-04-06T10:36:11;7.93;;;1.60;;
42590;SDS011;28218;53.342;-6.216;2023-04-06T10:38:41;6.85;;;1.75;;
42590;SDS011;28218;53.342;-6.216;2023-04-06T10:41:10;6.50;;;1.48;;
42590;SDS011;28218;53.342;-6.216;2023-04-06T10:43:40;10.70;;;2.42;;
42590;SDS011;28218;53.342;-6.216;2023-04-06T10:46:12;5.57;;;1.35;;
42590;SDS011;28218;53.342;-6.216;2023-04-06T10:48:40;4.82;;;1.75;;
42590;SDS011;28218;53.342;-6.216;2023-04-06T10:51:10;7.05;;;1.08;;
42590;SDS011;28218;53.342;-6.216;2023-04-06T10:53:40;7.80;;;1.42;;
42590;SDS011;28218;53.342;-6.216;2023-04-06T10:56:09;9.07;;;1.30;;
42590;SDS011;28218;53.342;-6.216;2023-04-06T10:58:43;4.15;;;1.20;;
42590;SDS011;28218;53.342;-6.216;2023-04-06T11:01:15;4.38;;;1.27;;
42590;SDS011;28218;53.342;-6.216;2023-04-06T11:03:44;7.72;;;1.15;;
42590;SDS011;28218;53.342;-6.216;2023-04-06T11:06:19;5.05;;;1.08;;
42590;SDS011;28218;53.342;-6.216;2023-04-06T11:08:48;7.53;;;1.48;;
42590;SDS011;28218;53.342;-6.216;2023-04-06T11:11:18;3.63;;;1.10;;
42590;SDS011;28218;53.342;-6.216;2023-04-06T11:13:48;12.07;;;1.35;;
42590;SDS011;28218;53.342;-6.216;2023-04-06T11:16:19;10.73;;;1.85;;
42590;SDS011;28218;53.342;-6.216;2023-04-06T11:18:49;5.23;;;1.23;;
42590;SDS011;28218;53.342;-6.216;2023-04-06T11:21:18;5.30;;;1.50;;
42590;SDS011;28218;53.342;-6.216;2023-04-06T11:23:48;5.38;;;1.25;;
42590;SDS011;28218;53.342;-6.216;2023-04-06T11:26:16;6.63;;;0.90;;
42590;SDS011;28218;53.342;-6.216;2023-04-06T11:28:44;5.97;;;1.10;;
42590;SDS011;28218;53.342;-6.216;2023-04-06T11:31:13;4.07;;;1.08;;
42590;SDS011;28218;53.342;-6.216;2023-04-06T11:33:43;4.63;;;1.42;;
42590;SDS011;28218;53.342;-6.216;2023-04-06T11:36:11;8.45;;;1.98;;
42590;SDS011;28218;53.342;-6.216;2023-04-06T11:38:42;5.20;;;1.00;;
42590;SDS011;28218;53.342;-6.216;2023-04-06T11:41:10;7.72;;;1.35;;
42590;SDS011;28218;53.342;-6.216;2023-04-06T11:43:39;6.70;;;1.33;;
42590;SDS011;28218;53.342;-6.216;2023-04-06T11:46:17;6.18;;;1.00;;
42590;SDS011;28218;53.342;-6.216;2023-04-06T11:48:48;7.38;;;1.33;;
42590;SDS011;28218;53.342;-6.216;2023-04-06T11:51:21;4.95;;;0.98;;
42590;SDS011;28218;53.342;-6.216;2023-04-06T11:53:50;10.57;;;1.70;;
42590;SDS011;28218;53.342;-6.216;2023-04-06T11:56:25;5.35;;;1.02;;
42590;SDS011;28218;53.342;-6.216;2023-04-06T11:58:55;7.40;;;1.20;;
42590;SDS011;28218;53.342;-6.216;2023-04-06T12:01:24;3.55;;;1.02;;
42590;SDS011;28218;53.342;-6.216;2023-04-06T12:03:54;8.07;;;1.33;;
42590;SDS011;28218;53.342;-6.216;2023-04-06T12:06:23;4.75;;;1.50;;
42590;SDS011;28218;53.342;-6.216;2023-04-06T12:08:52;7.55;;;1.52;;
42590;SDS011;28218;53.342;-6.216;2023-04-06T12:11:20;3.80;;;1.15;;
42590;SDS011;28218;53.342;-6.216;2023-04-06T12:13:48;3.88;;;0.93;;
42590;SDS011;28218;53.342;-6.216;2023-04-06T12:16:16;9.27;;;1.27;;
42590;SDS011;28218;53.342;-6.216;2023-04-06T12:18:45;7.60;;;1.88;;
42590;SDS011;28218;53.342;-6.216;2023-04-06T12:21:15;4.22;;;2.17;;
42590;SDS011;28218;53.342;-6.216;2023-04-06T12:23:43;9.45;;;1.50;;
42590;SDS011;28218;53.342;-6.216;2023-04-06T12:26:11;9.27;;;1.63;;
42590;SDS011;28218;53.342;-6.216;2023-04-06T12:28:40;3.58;;;1.17;;
42590;SDS011;28218;53.342;-6.216;2023-04-06T12:31:13;3.17;;;0.77;;
42590;SDS011;28218;53.342;-6.216;2023-04-06T12:33:42;3.53;;;0.80;;
42590;SDS011;28218;53.342;-6.216;2023-04-06T12:36:12;9.10;;;1.85;;
42590;SDS011;28218;53.342;-6.216;2023-04-06T12:38:42;5.78;;;1.48;;
42590;SDS011;28218;53.342;-6.216;2023-04-06T12:41:12;3.08;;;1.17;;
42590;SDS011;28218;53.342;-6.216;2023-04-06T12:43:40;5.05;;;1.20;;
42590;SDS011;28218;53.342;-6.216;2023-04-06T12:46:09;5.72;;;1.45;;
42590;SDS011;28218;53.342;-6.216;2023-04-06T12:48:38;6.22;;;1.25;;
42590;SDS011;28218;53.342;-6.216;2023-04-06T12:51:07;5.05;;;1.50;;
42590;SDS011;28218;53.342;-6.216;2023-04-06T12:53:35;2.88;;;1.20;;
42590;SDS011;28218;53.342;-6.216;2023-04-06T12:56:10;8.45;;;1.70;;
42590;SDS011;28218;53.342;-6.216;2023-04-06T12:58:40;9.48;;;2.75;;
42590;SDS011;28218;53.342;-6.216;2023-04-06T13:01:08;6.05;;;1.25;;
42590;SDS011;28218;53.342;-6.216;2023-04-06T13:03:39;13.73;;;1.52;;
42590;SDS011;28218;53.342;-6.216;2023-04-06T13:06:08;3.53;;;1.20;;
42590;SDS011;28218;53.342;-6.216;2023-04-06T13:08:38;3.75;;;1.60;;
42590;SDS011;28218;53.342;-6.216;2023-04-06T13:11:09;4.93;;;1.33;;
42590;SDS011;28218;53.342;-6.216;2023-04-06T13:13:37;5.97;;;1.33;;
42590;SDS011;28218;53.342;-6.216;2023-04-06T13:16:06;3.65;;;1.17;;
42590;SDS011;28218;53.342;-6.216;2023-04-06T13:18:35;1.55;;;0.57;;
42590;SDS011;28218;53.342;-6.216;2023-04-06T13:21:05;6.25;;;1.40;;
42590;SDS011;28218;53.342;-6.216;2023-04-06T13:23:34;3.63;;;1.73;;
42590;SDS011;28218;53.342;-6.216;2023-04-06T13:26:03;3.38;;;1.00;;
42590;SDS011;28218;53.342;-6.216;2023-04-06T13:28:34;11.07;;;1.08;;
42590;SDS011;28218;53.342;-6.216;2023-04-06T13:31:05;1.83;;;0.63;;
42590;SDS011;28218;53.342;-6.216;2023-04-06T13:33:34;1.17;;;0.77;;
42590;SDS011;28218;53.342;-6.216;2023-04-06T13:36:03;3.08;;;0.85;;
42590;SDS011;28218;53.342;-6.216;2023-04-06T13:38:34;5.15;;;0.88;;
42590;SDS011;28218;53.342;-6.216;2023-04-06T13:41:02;2.28;;;0.70;;
42590;SDS011;28218;53.342;-6.216;2023-04-06T13:43:30;2.63;;;0.90;;
42590;SDS011;28218;53.342;-6.216;2023-04-06T13:46:00;2.97;;;0.70;;
42590;SDS011;28218;53.342;-6.216;2023-04-06T13:48:28;3.55;;;0.90;;
42590;SDS011;28218;53.342;-6.216;2023-04-06T13:50:57;3.78;;;0.70;;
42590;SDS011;28218;53.342;-6.216;2023-04-06T13:53:25;7.18;;;1.30;;
42590;SDS011;28218;53.342;-6.216;2023-04-06T13:55:54;4.15;;;1.10;;
42590;SDS011;28218;53.342;-6.216;2023-04-06T13:58:22;3.70;;;1.10;;
42590;SDS011;28218;53.342;-6.216;2023-04-06T14:00:50;6.38;;;0.80;;
42590;SDS011;28218;53.342;-6.216;2023-04-06T14:03:21;6.20;;;0.60;;
42590;SDS011;28218;53.342;-6.216;2023-04-06T14:05:50;4.75;;;1.27;;
42590;SDS011;28218;53.342;-6.216;2023-04-06T14:08:19;3.40;;;0.82;;
42590;SDS011;28218;53.342;-6.216;2023-04-06T14:10:47;5.15;;;1.10;;
42590;SDS011;28218;53.342;-6.216;2023-04-06T14:13:15;4.35;;;0.80;;
42590;SDS011;28218;53.342;-6.216;2023-04-06T14:15:45;3.33;;;0.95;;
42590;SDS011;28218;53.342;-6.216;2023-04-06T14:18:14;4.88;;;1.40;;
42590;SDS011;28218;53.342;-6.216;2023-04-06T14:20:43;3.47;;;0.70;;
42590;SDS011;28218;53.342;-6.216;2023-04-06T14:23:11;1.83;;;0.63;;
42590;SDS011;28218;53.342;-6.216;2023-04-06T14:25:40;4.88;;;0.77;;
42590;SDS011;28218;53.342;-6.216;2023-04-06T14:28:08;4.57;;;0.90;;
42590;SDS011;28218;53.342;-6.216;2023-04-06T14:30:36;4.03;;;1.52;;
42590;SDS011;28218;53.342;-6.216;2023-04-06T14:33:04;6.88;;;1.70;;
42590;SDS011;28218;53.342;-6.216;2023-04-06T14:35:33;3.30;;;1.40;;
42590;SDS011;28218;53.342;-6.216;2023-04-06T14:38:06;2.30;;;0.52;;
42590;SDS011;28218;53.342;-6.216;2023-04-06T14:40:35;5.13;;;0.80;;
42590;SDS011;28218;53.342;-6.216;2023-04-06T14:43:03;7.72;;;1.20;;
42590;SDS011;28218;53.342;-6.216;2023-04-06T14:45:32;2.63;;;0.80;;
42590;SDS011;28218;53.342;-6.216;2023-04-06T14:48:01;2.80;;;0.65;;